sensor_id;sensor_type;location;lat;lon;timestamp;P1;durP1;ratioP1;P2;durP2;ratioP2
15669;SDS011;18524;45.190;5.732;2023-02-01T00:03:43;34.37;;;23.80;;
15669;SDS011;18524;45.190;5.732;2023-02-01T00:08:33;31.27;;;22.63;;
15669;SDS011;18524;45.190;5.732;2023-02-01T00:13:24;32.97;;;22.70;;
15669;SDS011;18524;45.190;5.732;2023-02-01T00:18:17;33.37;;;21.73;;
15669;SDS011;18524;45.190;5.732;2023-02-01T00:23:07;29.83;;;21.33;;
15669;SDS011;18524;45.190;5.732;2023-02-01T00:27:59;31.23;;;21.23;;
15669;SDS011;18524;45.190;5.732;2023-02-01T00:32:50;30.50;;;20.63;;
15669;SDS011;18524;45.190;5.732;2023-02-01T00:37:40;27.90;;;18.53;;
15669;SDS011;18524;45.190;5.732;2023-02-01T00:42:31;27.77;;;18.63;;
15669;SDS011;18524;45.190;5.732;2023-02-01T00:47:21;28.07;;;18.73;;
15669;SDS011;18524;45.190;5.732;2023-02-01T00:52:12;27.83;;;19.33;;
15669;SDS011;18524;45.190;5.732;2023-02-01T00:57:02;30.37;;;19.70;;
15669;SDS011;18524;45.190;5.732;2023-02-01T01:01:52;30.47;;;20.00;;
15669;SDS011;18524;45.190;5.732;2023-02-01T01:06:43;30.03;;;19.83;;
15669;SDS011;18524;45.190;5.732;2023-02-01T01:11:35;30.77;;;20.40;;
15669;SDS011;18524;45.190;5.732;2023-02-01T01:16:28;31.20;;;21.00;;
15669;SDS011;18524;45.190;5.732;2023-02-01T01:21:19;31.13;;;20.67;;
15669;SDS011;18524;45.190;5.732;2023-02-01T01:26:20;31.97;;;21.47;;
15669;SDS011;18524;45.190;5.732;2023-02-01T01:31:13;31.13;;;20.87;;
15669;SDS011;18524;45.190;5.732;2023-02-01T01:36:06;31.57;;;21.13;;
15669;SDS011;18524;45.190;5.732;2023-02-01T01:40:57;30.63;;;21.17;;
15669;SDS011;18524;45.190;5.732;2023-02-01T01:45:48;31.10;;;20.87;;
15669;SDS011;18524;45.190;5.732;2023-02-01T01:50:47;27.17;;;18.53;;
15669;SDS011;18524;45.190;5.732;2023-02-01T01:55:42;31.40;;;19.90;;
15669;SDS011;18524;45.190;5.732;2023-02-01T02:00:35;30.93;;;20.70;;
15669;SDS011;18524;45.190;5.732;2023-02-01T02:05:26;32.03;;;21.47;;
15669;SDS011;18524;45.190;5.732;2023-02-01T02:10:18;31.87;;;21.43;;
15669;SDS011;18524;45.190;5.732;2023-02-01T02:15:10;33.00;;;22.10;;
15669;SDS011;18524;45.190;5.732;2023-02-01T02:30:51;34.47;;;22.50;;
15669;SDS011;18524;45.190;5.732;2023-02-01T02:41:27;34.80;;;22.43;;
15669;SDS011;18524;45.190;5.732;2023-02-01T02:46:51;33.80;;;22.27;;
15669;SDS011;18524;45.190;5.732;2023-02-01T02:52:02;31.77;;;21.93;;
15669;SDS011;18524;45.190;5.732;2023-02-01T03:02:33;34.20;;;22.80;;
15669;SDS011;18524;45.190;5.732;2023-02-01T03:12:53;31.70;;;21.20;;
15669;SDS011;18524;45.190;5.732;2023-02-01T03:17:45;29.83;;;20.60;;
15669;SDS011;18524;45.190;5.732;2023-02-01T03:22:37;29.47;;;19.90;;
15669;SDS011;18524;45.190;5.732;2023-02-01T03:32:45;29.23;;;19.40;;
15669;SDS011;18524;45.190;5.732;2023-02-01T03:37:50;31.03;;;19.27;;
15669;SDS011;18524;45.190;5.732;2023-02-01T03:42:48;28.13;;;19.50;;
15669;SDS011;18524;45.190;5.732;2023-02-01T03:47:43;27.57;;;19.07;;
15669;SDS011;18524;45.190;5.732;2023-02-01T03:52:45;29.37;;;20.27;;
15669;SDS011;18524;45.190;5.732;2023-02-01T03:57:43;28.33;;;19.50;;
15669;SDS011;18524;45.190;5.732;2023-02-01T04:02:38;29.20;;;20.37;;
15669;SDS011;18524;45.190;5.732;2023-02-01T04:07:28;30.50;;;19.20;;
15669;SDS011;18524;45.190;5.732;2023-02-01T04:12:19;31.10;;;19.73;;
15669;SDS011;18524;45.190;5.732;2023-02-01T04:17:09;28.97;;;20.30;;
15669;SDS011;18524;45.190;5.732;2023-02-01T04:21:59;30.80;;;19.20;;
15669;SDS011;18524;45.190;5.732;2023-02-01T04:26:50;28.80;;;20.43;;
15669;SDS011;18524;45.190;5.732;2023-02-01T04:31:40;31.13;;;20.57;;
15669;SDS011;18524;45.190;5.732;2023-02-01T04:36:31;28.17;;;19.47;;
15669;SDS011;18524;45.190;5.732;2023-02-01T04:41:21;28.60;;;19.67;;
15669;SDS011;18524;45.190;5.732;2023-02-01T04:46:12;27.90;;;19.23;;
15669;SDS011;18524;45.190;5.732;2023-02-01T04:51:03;26.60;;;18.37;;
15669;SDS011;18524;45.190;5.732;2023-02-01T04:55:54;29.73;;;19.67;;
15669;SDS011;18524;45.190;5.732;2023-02-01T05:00:44;31.20;;;19.03;;
15669;SDS011;18524;45.190;5.732;2023-02-01T05:05:34;31.47;;;20.03;;
15669;SDS011;18524;45.190;5.732;2023-02-01T05:10:25;29.63;;;20.13;;
15669;SDS011;18524;45.190;5.732;2023-02-01T05:15:15;31.67;;;19.40;;
15669;SDS011;18524;45.190;5.732;2023-02-01T05:20:06;34.13;;;21.23;;
15669;SDS011;18524;45.190;5.732;2023-02-01T05:24:58;32.60;;;21.97;;
15669;SDS011;18524;45.190;5.732;2023-02-01T05:29:48;33.87;;;21.80;;
15669;SDS011;18524;45.190;5.732;2023-02-01T05:34:38;33.23;;;21.73;;
15669;SDS011;18524;45.190;5.732;2023-02-01T05:39:29;32.07;;;20.17;;
15669;SDS011;18524;45.190;5.732;2023-02-01T05:44:19;32.33;;;21.03;;
15669;SDS011;18524;45.190;5.732;2023-02-01T05:49:09;31.90;;;20.87;;
15669;SDS011;18524;45.190;5.732;2023-02-01T05:54:00;33.47;;;20.77;;
15669;SDS011;18524;45.190;5.732;2023-02-01T05:58:50;31.17;;;20.17;;
15669;SDS011;18524;45.190;5.732;2023-02-01T06:03:40;32.03;;;20.20;;
15669;SDS011;18524;45.190;5.732;2023-02-01T06:08:31;32.73;;;20.60;;
15669;SDS011;18524;45.190;5.732;2023-02-01T06:13:21;32.60;;;21.20;;
15669;SDS011;18524;45.190;5.732;2023-02-01T06:18:12;30.10;;;19.90;;
15669;SDS011;18524;45.190;5.732;2023-02-01T06:23:02;32.93;;;21.20;;
15669;SDS011;18524;45.190;5.732;2023-02-01T06:27:54;30.53;;;19.73;;
15669;SDS011;18524;45.190;5.732;2023-02-01T06:32:49;32.67;;;19.97;;
15669;SDS011;18524;45.190;5.732;2023-02-01T06:37:43;33.03;;;21.50;;
15669;SDS011;18524;45.190;5.732;2023-02-01T06:42:34;33.63;;;21.13;;
15669;SDS011;18524;45.190;5.732;2023-02-01T06:47:25;33.13;;;21.17;;
15669;SDS011;18524;45.190;5.732;2023-02-01T06:52:15;31.40;;;21.03;;
15669;SDS011;18524;45.190;5.732;2023-02-01T06:57:06;30.37;;;19.90;;
15669;SDS011;18524;45.190;5.732;2023-02-01T07:01:56;33.27;;;20.37;;
15669;SDS011;18524;45.190;5.732;2023-02-01T07:06:46;29.13;;;19.43;;
15669;SDS011;18524;45.190;5.732;2023-02-01T07:11:37;27.40;;;18.50;;
15669;SDS011;18524;45.190;5.732;2023-02-01T07:16:30;26.23;;;17.63;;
15669;SDS011;18524;45.190;5.732;2023-02-01T07:21:21;28.27;;;18.30;;
15669;SDS011;18524;45.190;5.732;2023-02-01T07:26:13;28.47;;;17.97;;
15669;SDS011;18524;45.190;5.732;2023-02-01T07:31:05;27.30;;;18.07;;
15669;SDS011;18524;45.190;5.732;2023-02-01T07:35:57;26.57;;;18.17;;
15669;SDS011;18524;45.190;5.732;2023-02-01T07:40:47;28.33;;;18.50;;
15669;SDS011;18524;45.190;5.732;2023-02-01T07:45:37;31.07;;;19.70;;
15669;SDS011;18524;45.190;5.732;2023-02-01T07:50:28;30.23;;;19.63;;
15669;SDS011;18524;45.190;5.732;2023-02-01T07:55:20;30.30;;;19.67;;
15669;SDS011;18524;45.190;5.732;2023-02-01T08:00:10;28.63;;;19.10;;
15669;SDS011;18524;45.190;5.732;2023-02-01T08:05:20;28.53;;;19.37;;
15669;SDS011;18524;45.190;5.732;2023-02-01T08:10:10;30.20;;;19.53;;
15669;SDS011;18524;45.190;5.732;2023-02-01T08:15:01;30.33;;;20.43;;
15669;SDS011;18524;45.190;5.732;2023-02-01T08:19:52;34.23;;;21.33;;
15669;SDS011;18524;45.190;5.732;2023-02-01T08:24:42;30.93;;;20.47;;
15669;SDS011;18524;45.190;5.732;2023-02-01T08:29:33;32.87;;;20.50;;
15669;SDS011;18524;45.190;5.732;2023-02-01T08:34:23;32.30;;;20.17;;
15669;SDS011;18524;45.190;5.732;2023-02-01T08:39:14;31.30;;;20.33;;
15669;SDS011;18524;45.190;5.732;2023-02-01T08:44:04;30.10;;;19.97;;
15669;SDS011;18524;45.190;5.732;2023-02-01T08:48:55;30.50;;;19.90;;
15669;SDS011;18524;45.190;5.732;2023-02-01T08:53:46;28.53;;;19.20;;
15669;SDS011;18524;45.190;5.732;2023-02-01T08:58:37;29.80;;;19.30;;
15669;SDS011;18524;45.190;5.732;2023-02-01T09:03:27;29.83;;;18.80;;
15669;SDS011;18524;45.190;5.732;2023-02-01T09:08:18;29.17;;;19.50;;
15669;SDS011;18524;45.190;5.732;2023-02-01T09:13:10;25.80;;;18.03;;
15669;SDS011;18524;45.190;5.732;2023-02-01T09:18:01;28.83;;;19.20;;
15669;SDS011;18524;45.190;5.732;2023-02-01T09:22:51;27.10;;;17.53;;
15669;SDS011;18524;45.190;5.732;2023-02-01T09:27:42;29.10;;;18.33;;
15669;SDS011;18524;45.190;5.732;2023-02-01T09:32:32;31.60;;;19.93;;
15669;SDS011;18524;45.190;5.732;2023-02-01T09:37:23;68.93;;;46.93;;
15669;SDS011;18524;45.190;5.732;2023-02-01T09:47:17;26.63;;;17.60;;
15669;SDS011;18524;45.190;5.732;2023-02-01T09:52:10;28.53;;;18.43;;
15669;SDS011;18524;45.190;5.732;2023-02-01T09:57:06;21.87;;;15.93;;
15669;SDS011;18524;45.190;5.732;2023-02-01T10:02:01;23.87;;;15.57;;
15669;SDS011;18524;45.190;5.732;2023-02-01T10:07:02;25.13;;;15.73;;
15669;SDS011;18524;45.190;5.732;2023-02-01T10:27:35;24.07;;;17.27;;
15669;SDS011;18524;45.190;5.732;2023-02-01T10:32:29;26.43;;;18.63;;
15669;SDS011;18524;45.190;5.732;2023-02-01T10:37:33;27.10;;;18.13;;
15669;SDS011;18524;45.190;5.732;2023-02-01T10:42:28;25.57;;;18.53;;
15669;SDS011;18524;45.190;5.732;2023-02-01T10:47:19;27.10;;;17.90;;
15669;SDS011;18524;45.190;5.732;2023-02-01T10:57:21;20.87;;;14.73;;
15669;SDS011;18524;45.190;5.732;2023-02-01T11:02:17;21.83;;;13.50;;
15669;SDS011;18524;45.190;5.732;2023-02-01T11:07:24;23.37;;;15.10;;
15669;SDS011;18524;45.190;5.732;2023-02-01T11:12:23;57.60;;;24.00;;
15669;SDS011;18524;45.190;5.732;2023-02-01T11:17:27;26.50;;;17.97;;
15669;SDS011;18524;45.190;5.732;2023-02-01T11:22:22;21.80;;;14.43;;
15669;SDS011;18524;45.190;5.732;2023-02-01T11:27:19;21.63;;;14.70;;
15669;SDS011;18524;45.190;5.732;2023-02-01T11:32:12;19.47;;;13.83;;
15669;SDS011;18524;45.190;5.732;2023-02-01T11:37:04;20.93;;;15.60;;
15669;SDS011;18524;45.190;5.732;2023-02-01T11:42:17;22.03;;;14.33;;
15669;SDS011;18524;45.190;5.732;2023-02-01T12:07:58;17.83;;;12.97;;
15669;SDS011;18524;45.190;5.732;2023-02-01T12:23:58;11.90;;;10.50;;
15669;SDS011;18524;45.190;5.732;2023-02-01T12:29:00;12.33;;;9.80;;
15669;SDS011;18524;45.190;5.732;2023-02-01T12:34:33;12.60;;;9.60;;
15669;SDS011;18524;45.190;5.732;2023-02-01T12:45:15;11.33;;;8.83;;
15669;SDS011;18524;45.190;5.732;2023-02-01T12:50:27;12.43;;;9.03;;
15669;SDS011;18524;45.190;5.732;2023-02-01T13:00:43;14.40;;;9.57;;
15669;SDS011;18524;45.190;5.732;2023-02-01T13:10:40;13.43;;;10.40;;
15669;SDS011;18524;45.190;5.732;2023-02-01T13:15:57;13.67;;;10.43;;
15669;SDS011;18524;45.190;5.732;2023-02-01T13:25:52;17.13;;;9.83;;
15669;SDS011;18524;45.190;5.732;2023-02-01T13:30:48;14.23;;;9.97;;
15669;SDS011;18524;45.190;5.732;2023-02-01T13:46:06;15.27;;;9.70;;
15669;SDS011;18524;45.190;5.732;2023-02-01T13:51:03;11.37;;;9.70;;
15669;SDS011;18524;45.190;5.732;2023-02-01T13:55:58;11.83;;;9.27;;
15669;SDS011;18524;45.190;5.732;2023-02-01T14:02:00;11.60;;;9.37;;
15669;SDS011;18524;45.190;5.732;2023-02-01T14:16:44;13.47;;;9.20;;
15669;SDS011;18524;45.190;5.732;2023-02-01T14:32:19;8.53;;;6.60;;
15669;SDS011;18524;45.190;5.732;2023-02-01T14:42:20;9.63;;;7.50;;
15669;SDS011;18524;45.190;5.732;2023-02-01T14:52:16;7.20;;;4.83;;
15669;SDS011;18524;45.190;5.732;2023-02-01T14:57:13;6.83;;;4.83;;
15669;SDS011;18524;45.190;5.732;2023-02-01T15:02:40;5.40;;;4.60;;
15669;SDS011;18524;45.190;5.732;2023-02-01T15:07:26;5.43;;;4.20;;
15669;SDS011;18524;45.190;5.732;2023-02-01T15:12:22;4.13;;;3.40;;
15669;SDS011;18524;45.190;5.732;2023-02-01T15:17:21;3.93;;;3.33;;
15669;SDS011;18524;45.190;5.732;2023-02-01T15:22:17;3.33;;;3.07;;
15669;SDS011;18524;45.190;5.732;2023-02-01T15:27:09;4.03;;;3.67;;
15669;SDS011;18524;45.190;5.732;2023-02-01T15:32:00;4.03;;;3.73;;
15669;SDS011;18524;45.190;5.732;2023-02-01T15:36:51;6.10;;;4.10;;
15669;SDS011;18524;45.190;5.732;2023-02-01T15:41:41;4.57;;;3.80;;
15669;SDS011;18524;45.190;5.732;2023-02-01T15:46:38;4.40;;;4.00;;
15669;SDS011;18524;45.190;5.732;2023-02-01T15:51:31;3.90;;;3.57;;
15669;SDS011;18524;45.190;5.732;2023-02-01T15:56:32;5.73;;;3.60;;
15669;SDS011;18524;45.190;5.732;2023-02-01T16:01:25;4.17;;;3.20;;
15669;SDS011;18524;45.190;5.732;2023-02-01T16:16:03;5.10;;;2.83;;
15669;SDS011;18524;45.190;5.732;2023-02-01T16:20:57;3.03;;;2.70;;
15669;SDS011;18524;45.190;5.732;2023-02-01T16:25:48;3.17;;;2.70;;
15669;SDS011;18524;45.190;5.732;2023-02-01T16:30:38;3.90;;;2.63;;
15669;SDS011;18524;45.190;5.732;2023-02-01T16:35:33;3.40;;;3.10;;
15669;SDS011;18524;45.190;5.732;2023-02-01T16:40:25;3.57;;;3.17;;
15669;SDS011;18524;45.190;5.732;2023-02-01T16:45:16;3.90;;;3.30;;
15669;SDS011;18524;45.190;5.732;2023-02-01T16:50:13;4.37;;;3.97;;
15669;SDS011;18524;45.190;5.732;2023-02-01T16:55:14;4.37;;;3.57;;
15669;SDS011;18524;45.190;5.732;2023-02-01T17:00:06;6.00;;;3.90;;
15669;SDS011;18524;45.190;5.732;2023-02-01T17:04:59;5.27;;;3.40;;
15669;SDS011;18524;45.190;5.732;2023-02-01T17:09:50;4.10;;;3.70;;
15669;SDS011;18524;45.190;5.732;2023-02-01T17:14:40;3.50;;;3.20;;
15669;SDS011;18524;45.190;5.732;2023-02-01T17:19:31;4.57;;;3.90;;
15669;SDS011;18524;45.190;5.732;2023-02-01T17:24:23;5.60;;;4.27;;
15669;SDS011;18524;45.190;5.732;2023-02-01T17:29:17;5.83;;;4.20;;
15669;SDS011;18524;45.190;5.732;2023-02-01T17:34:09;5.57;;;4.50;;
15669;SDS011;18524;45.190;5.732;2023-02-01T17:39:00;5.87;;;4.80;;
15669;SDS011;18524;45.190;5.732;2023-02-01T17:43:51;7.17;;;5.60;;
15669;SDS011;18524;45.190;5.732;2023-02-01T17:48:42;5.60;;;4.33;;
15669;SDS011;18524;45.190;5.732;2023-02-01T17:53:33;4.67;;;3.50;;
15669;SDS011;18524;45.190;5.732;2023-02-01T17:58:25;3.87;;;3.30;;
15669;SDS011;18524;45.190;5.732;2023-02-01T18:08:16;3.67;;;3.33;;
15669;SDS011;18524;45.190;5.732;2023-02-01T18:13:08;5.90;;;3.97;;
15669;SDS011;18524;45.190;5.732;2023-02-01T18:18:01;5.90;;;4.50;;
15669;SDS011;18524;45.190;5.732;2023-02-01T18:22:51;7.20;;;4.50;;
15669;SDS011;18524;45.190;5.732;2023-02-01T18:27:42;6.83;;;4.60;;
15669;SDS011;18524;45.190;5.732;2023-02-01T18:32:33;5.13;;;4.03;;
15669;SDS011;18524;45.190;5.732;2023-02-01T18:37:23;5.43;;;4.10;;
15669;SDS011;18524;45.190;5.732;2023-02-01T18:42:14;5.10;;;4.10;;
15669;SDS011;18524;45.190;5.732;2023-02-01T18:47:04;6.13;;;4.10;;
15669;SDS011;18524;45.190;5.732;2023-02-01T18:51:55;5.67;;;4.03;;
15669;SDS011;18524;45.190;5.732;2023-02-01T18:56:45;5.20;;;4.17;;
15669;SDS011;18524;45.190;5.732;2023-02-01T19:01:36;4.43;;;4.00;;
15669;SDS011;18524;45.190;5.732;2023-02-01T19:06:26;4.87;;;4.20;;
15669;SDS011;18524;45.190;5.732;2023-02-01T19:11:16;5.90;;;4.67;;
15669;SDS011;18524;45.190;5.732;2023-02-01T19:16:08;6.37;;;4.33;;
15669;SDS011;18524;45.190;5.732;2023-02-01T19:21:03;7.27;;;4.90;;
15669;SDS011;18524;45.190;5.732;2023-02-01T19:25:55;6.37;;;4.67;;
15669;SDS011;18524;45.190;5.732;2023-02-01T19:30:46;5.83;;;4.00;;
15669;SDS011;18524;45.190;5.732;2023-02-01T19:35:36;6.97;;;4.57;;
15669;SDS011;18524;45.190;5.732;2023-02-01T19:40:26;5.83;;;4.60;;
15669;SDS011;18524;45.190;5.732;2023-02-01T19:45:17;5.93;;;4.40;;
15669;SDS011;18524;45.190;5.732;2023-02-01T19:50:09;5.53;;;4.40;;
15669;SDS011;18524;45.190;5.732;2023-02-01T19:55:04;6.10;;;4.30;;
15669;SDS011;18524;45.190;5.732;2023-02-01T19:59:55;6.13;;;5.30;;
15669;SDS011;18524;45.190;5.732;2023-02-01T20:04:45;5.70;;;4.73;;
15669;SDS011;18524;45.190;5.732;2023-02-01T20:09:36;5.10;;;4.07;;
15669;SDS011;18524;45.190;5.732;2023-02-01T20:14:27;6.37;;;4.30;;
15669;SDS011;18524;45.190;5.732;2023-02-01T20:19:19;6.10;;;4.23;;
15669;SDS011;18524;45.190;5.732;2023-02-01T20:24:12;7.27;;;4.70;;
15669;SDS011;18524;45.190;5.732;2023-02-01T20:29:04;5.73;;;5.10;;
15669;SDS011;18524;45.190;5.732;2023-02-01T20:33:56;6.50;;;4.60;;
15669;SDS011;18524;45.190;5.732;2023-02-01T20:38:47;5.27;;;4.30;;
15669;SDS011;18524;45.190;5.732;2023-02-01T20:43:37;6.73;;;4.70;;
15669;SDS011;18524;45.190;5.732;2023-02-01T20:48:28;7.53;;;4.93;;
15669;SDS011;18524;45.190;5.732;2023-02-01T20:53:19;6.30;;;4.63;;
15669;SDS011;18524;45.190;5.732;2023-02-01T20:58:10;5.57;;;4.83;;
15669;SDS011;18524;45.190;5.732;2023-02-01T21:03:00;9.10;;;5.57;;
15669;SDS011;18524;45.190;5.732;2023-02-01T21:07:50;7.97;;;5.70;;
15669;SDS011;18524;45.190;5.732;2023-02-01T21:12:41;9.33;;;5.80;;
15669;SDS011;18524;45.190;5.732;2023-02-01T21:17:31;8.27;;;5.47;;
15669;SDS011;18524;45.190;5.732;2023-02-01T21:22:22;9.33;;;5.50;;
15669;SDS011;18524;45.190;5.732;2023-02-01T21:27:12;8.17;;;5.47;;
15669;SDS011;18524;45.190;5.732;2023-02-01T21:32:04;8.77;;;5.57;;
15669;SDS011;18524;45.190;5.732;2023-02-01T21:36:55;7.60;;;5.30;;
15669;SDS011;18524;45.190;5.732;2023-02-01T21:41:46;9.00;;;5.47;;
15669;SDS011;18524;45.190;5.732;2023-02-01T21:46:55;8.40;;;5.53;;
15669;SDS011;18524;45.190;5.732;2023-02-01T21:51:46;8.90;;;5.67;;
15669;SDS011;18524;45.190;5.732;2023-02-01T21:56:36;8.43;;;5.23;;
15669;SDS011;18524;45.190;5.732;2023-02-01T22:01:28;8.50;;;5.70;;
15669;SDS011;18524;45.190;5.732;2023-02-01T22:06:27;11.47;;;5.67;;
15669;SDS011;18524;45.190;5.732;2023-02-01T22:11:18;11.10;;;5.50;;
15669;SDS011;18524;45.190;5.732;2023-02-01T22:16:09;11.50;;;5.87;;
15669;SDS011;18524;45.190;5.732;2023-02-01T22:20:59;10.10;;;5.40;;
15669;SDS011;18524;45.190;5.732;2023-02-01T22:25:58;9.03;;;5.53;;
15669;SDS011;18524;45.190;5.732;2023-02-01T22:30:52;9.53;;;5.40;;
15669;SDS011;18524;45.190;5.732;2023-02-01T22:35:46;10.27;;;5.73;;
15669;SDS011;18524;45.190;5.732;2023-02-01T22:40:38;10.30;;;5.77;;
15669;SDS011;18524;45.190;5.732;2023-02-01T22:45:28;8.67;;;5.60;;
15669;SDS011;18524;45.190;5.732;2023-02-01T22:50:18;9.83;;;5.53;;
15669;SDS011;18524;45.190;5.732;2023-02-01T22:55:09;9.43;;;6.03;;
15669;SDS011;18524;45.190;5.732;2023-02-01T22:59:59;7.23;;;5.13;;
15669;SDS011;18524;45.190;5.732;2023-02-01T23:04:49;12.07;;;5.73;;
15669;SDS011;18524;45.190;5.732;2023-02-01T23:09:40;9.00;;;5.80;;
15669;SDS011;18524;45.190;5.732;2023-02-01T23:14:32;11.07;;;6.50;;
15669;SDS011;18524;45.190;5.732;2023-02-01T23:19:22;7.83;;;5.60;;
15669;SDS011;18524;45.190;5.732;2023-02-01T23:24:12;7.27;;;5.03;;
15669;SDS011;18524;45.190;5.732;2023-02-01T23:29:03;8.90;;;5.43;;
15669;SDS011;18524;45.190;5.732;2023-02-01T23:33:54;7.03;;;5.03;;
15669;SDS011;18524;45.190;5.732;2023-02-01T23:38:45;7.10;;;5.10;;
15669;SDS011;18524;45.190;5.732;2023-02-01T23:43:36;7.23;;;5.00;;
15669;SDS011;18524;45.190;5.732;2023-02-01T23:48:46;8.13;;;5.73;;
15669;SDS011;18524;45.190;5.732;2023-02-01T23:53:38;9.93;;;8.17;;
15669;SDS011;18524;45.190;5.732;2023-02-01T23:58:28;10.00;;;8.47;;
